createdAt,value
2023-01-11T00:01:21.382Z,0.98
2023-01-11T00:03:49.583Z,0.75
2023-01-11T00:06:17.853Z,0.82
2023-01-11T00:08:47.261Z,0.32
2023-01-11T00:11:17.589Z,0.57
2023-01-11T00:13:47.629Z,0.45
2023-01-11T00:16:16.251Z,0.95
2023-01-11T00:18:44.721Z,0.65
2023-01-11T00:21:13.034Z,0.50
2023-01-11T00:23:41.632Z,0.45
2023-01-11T00:26:14.258Z,1.38
2023-01-11T00:31:12.555Z,0.70
2023-01-11T00:33:40.973Z,0.75
2023-01-11T00:36:11.081Z,0.70
2023-01-11T00:38:51.216Z,1.17
2023-01-11T00:41:37.920Z,1.38
2023-01-11T00:44:24.554Z,2.42
2023-01-11T00:47:11.642Z,0.68
2023-01-11T00:49:40.455Z,1.27
2023-01-11T00:52:10.068Z,0.40
2023-01-11T00:54:39.446Z,1.55
2023-01-11T00:57:08.937Z,0.95
2023-01-11T00:59:39.243Z,1.48
2023-01-11T01:02:09.917Z,0.32
2023-01-11T01:04:39.361Z,0.98
2023-01-11T01:07:09.055Z,1.05
2023-01-11T01:09:37.327Z,0.82
2023-01-11T01:12:07.158Z,1.35
2023-01-11T01:14:35.292Z,0.90
2023-01-11T01:17:07.180Z,1.15
2023-01-11T01:19:40.130Z,0.75
2023-01-11T01:22:09.171Z,1.05
2023-01-11T01:24:37.631Z,0.40
2023-01-11T01:27:05.880Z,0.88
2023-01-11T01:29:34.341Z,0.30
2023-01-11T01:32:06.328Z,0.30
2023-01-11T01:34:37.517Z,0.50
2023-01-11T01:37:05.980Z,0.80
2023-01-11T01:39:35.395Z,0.90
2023-01-11T01:42:03.960Z,0.85
2023-01-11T01:45:00.629Z,1.45
2023-01-11T01:47:39.894Z,0.60
2023-01-11T01:50:18.895Z,0.20
2023-01-11T01:52:53.403Z,0.32
2023-01-11T01:55:29.647Z,0.52
2023-01-11T01:58:01.160Z,0.73
2023-01-11T02:00:30.117Z,0.75
2023-01-11T02:03:02.085Z,0.75
2023-01-11T02:05:32.322Z,0.32
2023-01-11T02:08:01.775Z,1.00
2023-01-11T02:10:30.482Z,0.22
2023-01-11T02:13:05.009Z,0.90
2023-01-11T02:15:33.924Z,0.25
2023-01-11T02:18:02.426Z,0.57
2023-01-11T02:20:47.484Z,0.17
2023-01-11T02:23:54.000Z,0.10
2023-01-11T02:27:01.747Z,0.35
2023-01-11T02:29:44.398Z,0.30
2023-01-11T02:32:27.107Z,1.10
2023-01-11T02:37:44.167Z,0.40
2023-01-11T02:40:23.299Z,0.20
2023-01-11T02:43:13.065Z,1.38
2023-01-11T02:45:49.609Z,1.60
2023-01-11T02:48:27.739Z,0.57
2023-01-11T02:51:05.241Z,0.20
2023-01-11T02:53:39.594Z,0.47
2023-01-11T02:56:12.220Z,0.55
2023-01-11T02:58:45.732Z,0.30
2023-01-11T03:01:16.556Z,0.10
2023-01-11T03:03:45.068Z,0.80
2023-01-11T03:06:18.547Z,0.70
2023-01-11T03:09:11.319Z,1.63
2023-01-11T03:12:13.483Z,0.77
2023-01-11T03:14:57.944Z,0.35
2023-01-11T03:17:46.504Z,0.20
2023-01-11T03:20:26.583Z,1.23
2023-01-11T03:23:11.486Z,0.30
2023-01-11T03:25:51.077Z,0.93
2023-01-11T03:28:27.273Z,0.43
2023-01-11T03:31:03.228Z,0.50
2023-01-11T03:33:39.616Z,0.90
2023-01-11T03:36:17.680Z,0.90
2023-01-11T03:38:52.866Z,1.13
2023-01-11T03:41:26.253Z,2.17
2023-01-11T03:43:58.168Z,0.17
2023-01-11T03:46:31.642Z,1.15
2023-01-11T03:49:06.614Z,0.60
2023-01-11T03:51:42.720Z,0.50
2023-01-11T03:54:18.467Z,1.30
2023-01-11T03:56:55.129Z,0.10
2023-01-11T03:59:23.954Z,0.88
2023-01-11T04:01:55.291Z,0.40
2023-01-11T04:04:25.620Z,0.68
2023-01-11T04:06:54.373Z,0.20
2023-01-11T04:09:23.300Z,1.70
2023-01-11T04:11:51.755Z,0.95
2023-01-11T04:14:20.286Z,0.17
2023-01-11T04:16:48.919Z,1.75
2023-01-11T04:19:17.189Z,0.00
2023-01-11T04:21:46.829Z,2.75
2023-01-11T04:24:15.426Z,1.45
2023-01-11T04:26:43.737Z,0.52
2023-01-11T04:29:12.628Z,0.28
2023-01-11T04:31:40.944Z,0.10
2023-01-11T04:34:09.306Z,0.60
2023-01-11T04:36:37.989Z,0.00
2023-01-11T04:39:10.612Z,0.15
2023-01-11T04:44:25.271Z,0.80
2023-01-11T04:46:53.895Z,0.70
2023-01-11T04:49:22.211Z,0.30
2023-01-11T04:51:50.518Z,0.73
2023-01-11T04:54:20.443Z,0.25
2023-01-11T04:56:48.947Z,0.77
2023-01-11T04:59:17.283Z,0.65
2023-01-11T05:01:45.750Z,0.25
2023-01-11T05:04:14.410Z,0.25
2023-01-11T05:06:42.750Z,1.70
2023-01-11T05:09:14.803Z,1.73
2023-01-11T05:11:45.744Z,0.63
2023-01-11T05:14:14.077Z,0.43
2023-01-11T05:16:42.708Z,0.40
2023-01-11T05:19:12.897Z,0.65
2023-01-11T05:21:43.317Z,2.30
2023-01-11T05:24:16.016Z,1.23
2023-01-11T05:29:17.067Z,2.75
2023-01-11T05:31:45.467Z,0.98
2023-01-11T05:34:15.072Z,1.60
2023-01-11T05:36:44.156Z,1.33
2023-01-11T05:39:13.987Z,0.90
2023-01-11T05:41:42.719Z,0.98
2023-01-11T05:44:32.028Z,2.03
2023-01-11T05:47:00.828Z,1.52
2023-01-11T05:49:29.188Z,1.92
2023-01-11T05:51:57.736Z,2.90
2023-01-11T05:54:26.368Z,1.70
2023-01-11T05:56:57.408Z,3.83
2023-01-11T05:59:27.508Z,1.45
2023-01-11T06:01:55.951Z,1.80
2023-01-11T06:04:24.288Z,0.57
2023-01-11T06:06:52.619Z,0.75
2023-01-11T06:09:21.953Z,0.63
2023-01-11T06:11:50.600Z,2.13
2023-01-11T06:14:19.225Z,1.38
2023-01-11T06:16:49.000Z,1.95
2023-01-11T06:19:17.860Z,1.90
2023-01-11T06:21:46.126Z,1.58
2023-01-11T06:24:14.587Z,3.80
2023-01-11T06:26:43.148Z,2.83
2023-01-11T06:29:11.555Z,3.03
2023-01-11T06:31:39.816Z,3.78
2023-01-11T06:34:10.254Z,3.92
2023-01-11T06:36:39.247Z,3.03
2023-01-11T06:39:07.892Z,5.55
2023-01-11T06:41:36.216Z,4.72
2023-01-11T06:44:04.716Z,5.30
2023-01-11T06:46:33.671Z,4.38
2023-01-11T06:49:03.533Z,3.55
2023-01-11T06:51:33.374Z,3.58
2023-01-11T06:54:01.693Z,1.90
2023-01-11T06:56:30.131Z,2.75
2023-01-11T06:58:58.522Z,2.03
2023-01-11T07:01:27.513Z,1.45
2023-01-11T07:03:55.830Z,1.63
2023-01-11T07:06:24.777Z,0.75
2023-01-11T07:08:54.484Z,0.50
2023-01-11T07:11:22.840Z,7.30
2023-01-11T07:13:51.305Z,1.48
2023-01-11T07:16:19.674Z,1.10
2023-01-11T07:18:48.281Z,2.35
2023-01-11T07:21:17.009Z,0.38
2023-01-11T07:23:45.958Z,1.75
2023-01-11T07:26:17.214Z,0.82
2023-01-11T07:28:46.044Z,2.10
2023-01-11T07:31:14.831Z,1.10
2023-01-11T07:33:43.474Z,2.22
2023-01-11T07:36:11.810Z,1.45
2023-01-11T07:38:40.369Z,2.28
2023-01-11T07:41:22.521Z,1.02
2023-01-11T07:43:52.545Z,0.95
2023-01-11T07:46:21.089Z,5.28
2023-01-11T07:48:49.639Z,2.58
2023-01-11T07:51:20.512Z,3.80
2023-01-11T07:53:49.011Z,2.88
2023-01-11T07:56:18.122Z,2.00
2023-01-11T07:58:46.440Z,3.45
2023-01-11T08:01:16.164Z,3.97
2023-01-11T08:03:44.804Z,6.25
2023-01-11T08:06:14.466Z,4.65
2023-01-11T08:08:43.358Z,11.95
2023-01-11T08:11:32.789Z,6.63
2023-01-11T08:14:18.759Z,9.98
2023-01-11T08:16:48.652Z,4.82
2023-01-11T08:19:17.234Z,5.22
2023-01-11T08:21:45.579Z,8.15
2023-01-11T08:24:13.803Z,9.90
2023-01-11T08:26:42.259Z,10.85
2023-01-11T08:29:11.652Z,13.13
2023-01-11T08:31:39.971Z,16.35
2023-01-11T08:34:09.885Z,9.77
2023-01-11T08:36:38.352Z,9.88
2023-01-11T08:39:06.867Z,14.95
2023-01-11T08:41:35.371Z,8.15
2023-01-11T08:44:04.124Z,10.15
2023-01-11T08:46:34.307Z,11.15
2023-01-11T08:49:02.944Z,15.30
2023-01-11T08:51:33.201Z,13.65
2023-01-11T08:54:01.746Z,20.50
2023-01-11T08:56:30.449Z,14.85
2023-01-11T08:58:58.807Z,16.35
2023-01-11T09:01:27.171Z,20.13
2023-01-11T09:03:56.019Z,16.73
2023-01-11T09:06:24.356Z,21.85
2023-01-11T09:08:54.460Z,20.25
2023-01-11T09:11:40.504Z,22.77
2023-01-11T09:14:08.960Z,18.17
2023-01-11T09:16:37.255Z,25.88
2023-01-11T09:19:05.885Z,21.33
2023-01-11T09:21:34.313Z,20.80
2023-01-11T09:24:05.040Z,23.00
2023-01-11T09:26:33.658Z,22.42
2023-01-11T09:29:02.012Z,21.20
2023-01-11T09:31:30.605Z,30.95
2023-01-11T09:33:59.159Z,22.88
2023-01-11T09:36:28.037Z,22.35
2023-01-11T09:38:58.038Z,26.90
2023-01-11T09:41:43.083Z,29.45
2023-01-11T09:44:19.078Z,30.25
2023-01-11T09:46:54.450Z,24.17
2023-01-11T09:49:28.751Z,17.58
2023-01-11T09:52:09.559Z,24.70
2023-01-11T09:54:38.616Z,21.02
2023-01-11T09:57:26.651Z,22.77
2023-01-11T10:00:05.214Z,26.73
2023-01-11T10:02:50.122Z,25.77
2023-01-11T10:05:44.113Z,29.67
2023-01-11T10:18:22.885Z,22.88
2023-01-11T10:18:32.762Z,22.50
2023-01-11T10:20:38.371Z,23.05
2023-01-11T10:23:16.629Z,24.92
2023-01-11T10:25:51.811Z,23.50
2023-01-11T10:28:29.582Z,23.20
2023-01-11T10:31:29.677Z,23.58
2023-01-11T10:34:33.716Z,25.88
2023-01-11T10:37:26.837Z,25.80
2023-01-11T10:43:00.265Z,20.35
2023-01-11T10:45:44.396Z,21.58
2023-01-11T10:48:23.633Z,22.75
2023-01-11T10:51:04.981Z,22.45
2023-01-11T10:53:40.660Z,22.35
2023-01-11T10:56:25.443Z,27.65
2023-01-11T10:59:16.481Z,21.25
2023-01-11T11:01:59.967Z,25.60
2023-01-11T11:07:34.439Z,20.73
2023-01-11T11:10:13.566Z,26.60
2023-01-11T11:12:53.505Z,23.85
2023-01-11T11:15:28.332Z,25.60
2023-01-11T11:17:56.906Z,25.55
2023-01-11T11:20:30.285Z,30.35
2023-01-11T11:23:00.332Z,27.65
2023-01-11T11:25:32.541Z,25.23
2023-01-11T11:28:05.151Z,21.25
2023-01-11T11:30:39.017Z,24.27
2023-01-11T11:33:20.114Z,23.75
2023-01-11T11:35:58.432Z,27.08
2023-01-11T11:38:31.336Z,17.17
2023-01-11T11:41:07.558Z,22.85
2023-01-11T11:43:37.857Z,22.20
2023-01-11T11:46:22.843Z,22.33
2023-01-11T11:49:13.921Z,31.63
2023-01-11T11:51:44.073Z,27.27
2023-01-11T11:54:23.706Z,23.58
2023-01-11T11:56:53.193Z,33.45
2023-01-11T11:59:24.434Z,23.17
2023-01-11T12:02:00.776Z,28.25
2023-01-11T12:04:47.139Z,18.90
2023-01-11T12:07:20.376Z,23.27
2023-01-11T12:09:55.946Z,28.63
2023-01-11T12:12:28.607Z,18.23
2023-01-11T12:15:19.974Z,18.63
2023-01-11T12:17:49.313Z,20.30
2023-01-11T12:20:44.654Z,19.45
2023-01-11T12:23:19.378Z,16.60
2023-01-11T12:26:17.322Z,16.40
2023-01-11T12:29:19.412Z,19.90
2023-01-11T12:32:16.212Z,20.35
2023-01-11T12:35:20.873Z,17.90
2023-01-11T12:38:10.616Z,22.67
2023-01-11T12:40:52.695Z,18.05
2023-01-11T12:43:38.944Z,20.58
2023-01-11T12:46:21.488Z,19.15
2023-01-11T12:49:30.535Z,24.30
2023-01-11T12:52:29.042Z,22.40
2023-01-11T12:55:20.496Z,16.92
2023-01-11T12:58:01.602Z,30.10
2023-01-11T13:01:07.918Z,19.27
2023-01-11T13:04:22.857Z,24.42
2023-01-11T13:07:01.629Z,32.88
2023-01-11T13:09:45.832Z,19.88
2023-01-11T13:12:20.412Z,29.00
2023-01-11T13:15:04.465Z,20.30
2023-01-11T13:17:43.209Z,24.55
2023-01-11T13:20:40.401Z,23.33
2023-01-11T13:23:25.408Z,23.20
2023-01-11T13:25:55.389Z,25.63
2023-01-11T13:28:31.209Z,27.13
2023-01-11T13:31:03.474Z,29.92
2023-01-11T13:33:35.824Z,24.90
2023-01-11T13:36:22.869Z,20.20
2023-01-11T13:39:00.273Z,23.35
2023-01-11T13:41:35.029Z,20.30
2023-01-11T13:44:11.548Z,27.17
2023-01-11T13:46:58.809Z,25.05
2023-01-11T13:49:42.443Z,19.80
2023-01-11T13:52:16.272Z,22.27
2023-01-11T13:54:57.956Z,25.60
2023-01-11T13:57:37.127Z,26.63
2023-01-11T14:00:19.074Z,26.83
2023-01-11T14:02:53.076Z,28.00
2023-01-11T14:05:24.486Z,25.58
2023-01-11T14:08:22.529Z,24.38
2023-01-11T14:11:05.991Z,21.27
2023-01-11T14:14:11.404Z,30.17
2023-01-11T14:16:58.981Z,25.35
2023-01-11T14:19:35.210Z,24.88
2023-01-11T14:22:22.351Z,22.15
2023-01-11T14:25:01.305Z,25.45
2023-01-11T14:28:01.442Z,24.38
2023-01-11T14:30:50.752Z,22.05
2023-01-11T14:34:17.498Z,21.70
2023-01-11T14:37:18.498Z,24.52
2023-01-11T14:40:12.132Z,27.70
2023-01-11T14:43:24.403Z,32.97
2023-01-11T14:46:29.977Z,24.23
2023-01-11T14:49:15.846Z,26.58
2023-01-11T14:51:58.037Z,26.15
2023-01-11T14:54:32.811Z,22.77
2023-01-11T14:57:02.966Z,35.00
2023-01-11T14:59:40.163Z,31.70
2023-01-11T15:02:26.369Z,27.30
2023-01-11T15:05:29.438Z,22.67
2023-01-11T15:08:22.638Z,25.58
2023-01-11T15:13:33.009Z,24.80
2023-01-11T15:16:36.478Z,21.42
2023-01-11T15:19:09.222Z,21.83
2023-01-11T15:24:25.360Z,21.15
2023-01-11T15:26:56.684Z,23.17
2023-01-11T15:29:29.289Z,22.67
2023-01-11T15:34:50.412Z,20.58
2023-01-11T15:37:43.108Z,18.30
2023-01-11T15:40:19.295Z,24.42
2023-01-11T15:43:36.285Z,20.45
2023-01-11T15:46:52.612Z,21.17
2023-01-11T15:50:15.593Z,20.10
2023-01-11T15:53:27.246Z,27.02
2023-01-11T15:56:37.574Z,23.40
2023-01-11T16:00:05.327Z,18.25
2023-01-11T16:03:14.038Z,21.13
2023-01-11T16:05:50.748Z,21.50
2023-01-11T16:08:28.286Z,19.15
2023-01-11T16:11:18.613Z,18.30
2023-01-11T16:14:15.871Z,19.98
2023-01-11T16:16:46.198Z,20.85
2023-01-11T16:19:20.513Z,18.05
2023-01-11T16:21:52.145Z,17.15
2023-01-11T16:24:23.396Z,17.13
2023-01-11T16:26:55.607Z,18.42
2023-01-11T16:29:27.737Z,19.88
2023-01-11T16:32:00.784Z,21.98
2023-01-11T16:34:30.860Z,20.55
2023-01-11T16:36:59.336Z,22.10
2023-01-11T16:39:31.735Z,19.08
2023-01-11T16:42:05.655Z,18.83
2023-01-11T16:44:42.711Z,12.88
2023-01-11T16:47:15.781Z,17.52
2023-01-11T16:49:58.708Z,20.77
2023-01-11T16:55:22.153Z,14.35
2023-01-11T16:57:55.732Z,13.00
2023-01-11T17:00:32.880Z,13.57
2023-01-11T17:03:25.151Z,15.23
2023-01-11T17:06:16.829Z,15.35
2023-01-11T17:08:49.463Z,12.18
2023-01-11T17:14:53.609Z,16.70
2023-01-11T17:17:22.608Z,25.77
2023-01-11T17:19:54.308Z,12.40
2023-01-11T17:22:27.547Z,15.07
2023-01-11T17:24:59.474Z,17.40
2023-01-11T17:27:33.158Z,13.05
2023-01-11T17:30:03.681Z,12.82
2023-01-11T17:32:37.811Z,18.63
2023-01-11T17:35:16.941Z,14.15
2023-01-11T17:37:47.199Z,15.75
2023-01-11T17:40:26.402Z,13.27
2023-01-11T17:43:15.829Z,15.32
2023-01-11T17:45:46.763Z,15.50
2023-01-11T17:48:38.688Z,15.45
2023-01-11T17:51:15.001Z,13.93
2023-01-11T17:53:50.483Z,15.65
2023-01-11T17:56:39.241Z,16.67
2023-01-11T17:59:21.392Z,20.77
2023-01-11T18:01:52.541Z,20.20
2023-01-11T18:04:23.292Z,17.98
2023-01-11T18:06:55.743Z,48.40
2023-01-11T18:09:28.941Z,21.40
2023-01-11T18:12:08.723Z,19.67
2023-01-11T18:14:42.310Z,17.50
2023-01-11T18:17:31.773Z,17.73
2023-01-11T18:20:00.770Z,18.45
2023-01-11T18:22:35.105Z,15.68
2023-01-11T18:25:18.740Z,23.50
2023-01-11T18:27:47.639Z,23.17
2023-01-11T18:30:38.839Z,22.15
2023-01-11T18:33:15.763Z,23.02
2023-01-11T18:35:45.960Z,22.42
2023-01-11T18:38:17.873Z,18.25
2023-01-11T18:40:47.952Z,18.20
2023-01-11T18:43:18.632Z,17.67
2023-01-11T18:45:47.426Z,25.42
2023-01-11T18:48:16.989Z,20.73
2023-01-11T18:50:46.254Z,20.48
2023-01-11T18:53:17.318Z,28.83
2023-01-11T18:55:46.950Z,25.25
2023-01-11T18:58:15.211Z,18.02
2023-01-11T19:00:43.413Z,20.52
2023-01-11T19:05:41.758Z,21.30
2023-01-11T19:08:09.988Z,25.88
2023-01-11T19:10:42.338Z,19.02
2023-01-11T19:13:10.891Z,22.92
2023-01-11T19:15:39.089Z,15.57
2023-01-11T19:18:07.333Z,22.33
2023-01-11T19:20:35.558Z,24.83
2023-01-11T19:23:03.794Z,20.60
2023-01-11T19:25:32.510Z,16.45
2023-01-11T19:28:03.445Z,20.10
2023-01-11T19:30:31.660Z,19.88
2023-01-11T19:32:59.962Z,23.48
2023-01-11T19:35:28.233Z,23.90
2023-01-11T19:37:56.451Z,15.65
2023-01-11T19:40:24.666Z,19.33
2023-01-11T19:42:53.239Z,21.10
2023-01-11T19:45:22.742Z,15.65
2023-01-11T19:47:51.016Z,23.52
2023-01-11T19:50:19.502Z,24.60
2023-01-11T19:52:49.331Z,21.08
2023-01-11T19:55:17.898Z,23.23
2023-01-11T19:57:46.105Z,19.83
2023-01-11T20:00:15.372Z,18.88
2023-01-11T20:02:45.011Z,19.30
2023-01-11T20:05:13.599Z,19.88
2023-01-11T20:07:41.835Z,21.85
2023-01-11T20:10:11.660Z,23.92
2023-01-11T20:12:39.842Z,20.38
2023-01-11T20:15:09.507Z,22.23
2023-01-11T20:17:37.978Z,17.35
2023-01-11T20:20:09.468Z,23.33
2023-01-11T20:22:37.900Z,22.65
2023-01-11T20:25:07.642Z,16.45
2023-01-11T20:27:35.871Z,15.82
2023-01-11T20:30:04.340Z,14.43
2023-01-11T20:32:41.345Z,15.38
2023-01-11T20:35:12.881Z,25.60
2023-01-11T20:37:41.212Z,18.98
2023-01-11T20:40:14.141Z,21.70
2023-01-11T20:42:42.794Z,18.52
2023-01-11T20:45:15.195Z,18.17
2023-01-11T20:47:44.775Z,17.20
2023-01-11T20:50:14.574Z,25.80
2023-01-11T20:52:43.178Z,16.70
2023-01-11T20:55:11.535Z,25.83
2023-01-11T20:57:45.337Z,23.00
2023-01-11T21:00:14.612Z,24.55
2023-01-11T21:02:43.025Z,19.73
2023-01-11T21:05:11.748Z,20.55
2023-01-11T21:07:41.328Z,24.15
2023-01-11T21:10:11.444Z,17.92
2023-01-11T21:12:40.077Z,20.48
2023-01-11T21:15:10.693Z,23.60
2023-01-11T21:17:40.003Z,16.45
2023-01-11T21:20:10.041Z,19.67
2023-01-11T21:22:39.873Z,21.88
2023-01-11T21:25:10.064Z,20.42
2023-01-11T21:27:38.963Z,24.15
2023-01-11T21:30:09.195Z,20.15
2023-01-11T21:32:37.571Z,18.77
2023-01-11T21:35:06.958Z,23.25
2023-01-11T21:37:35.204Z,21.92
2023-01-11T21:40:06.421Z,18.88
2023-01-11T21:42:35.289Z,25.90
2023-01-11T21:45:05.479Z,24.20
2023-01-11T21:47:33.916Z,21.67
2023-01-11T21:50:02.671Z,21.42
2023-01-11T21:52:32.097Z,23.55
2023-01-11T21:55:01.746Z,22.75
2023-01-11T21:57:32.237Z,15.55
2023-01-11T22:00:01.319Z,29.60
2023-01-11T22:02:29.698Z,20.40
2023-01-11T22:04:59.581Z,20.33
2023-01-11T22:07:29.048Z,21.77
2023-01-11T22:10:04.651Z,27.08
2023-01-11T22:12:35.768Z,21.40
2023-01-11T22:15:04.629Z,22.70
2023-01-11T22:17:33.217Z,23.73
2023-01-11T22:20:02.101Z,28.80
2023-01-11T22:22:30.888Z,26.30
2023-01-11T22:24:59.675Z,26.00
2023-01-11T22:27:28.089Z,22.02
2023-01-11T22:29:57.913Z,21.27
2023-01-11T22:32:27.244Z,18.90
2023-01-11T22:34:56.418Z,22.02
2023-01-11T22:37:25.001Z,19.02
2023-01-11T22:39:53.361Z,24.17
2023-01-11T22:42:21.711Z,23.02
2023-01-11T22:44:49.975Z,24.98
2023-01-11T22:47:19.560Z,23.15
2023-01-11T22:49:53.927Z,25.33
2023-01-11T22:52:22.652Z,20.73
2023-01-11T22:54:50.993Z,17.40
2023-01-11T22:57:19.506Z,16.88
2023-01-11T22:59:48.370Z,27.30
2023-01-11T23:02:17.067Z,17.83
2023-01-11T23:04:47.119Z,18.13
2023-01-11T23:07:15.843Z,16.90
2023-01-11T23:09:44.030Z,19.60
2023-01-11T23:12:30.212Z,20.48
2023-01-11T23:14:58.925Z,13.93
2023-01-11T23:17:27.412Z,15.73
2023-01-11T23:19:57.220Z,28.52
2023-01-11T23:22:25.753Z,25.90
2023-01-11T23:24:54.171Z,19.98
2023-01-11T23:27:22.405Z,20.65
2023-01-11T23:29:50.678Z,23.75
2023-01-11T23:32:19.036Z,18.35
2023-01-11T23:34:47.360Z,19.65
2023-01-11T23:37:17.861Z,28.27
2023-01-11T23:39:46.079Z,20.95
2023-01-11T23:42:28.529Z,15.25
2023-01-11T23:44:57.550Z,16.35
2023-01-11T23:47:26.107Z,23.50
2023-01-11T23:49:57.086Z,17.75
2023-01-11T23:52:29.413Z,21.88
2023-01-11T23:54:58.130Z,20.13
2023-01-11T23:57:27.612Z,19.48
2023-01-11T23:59:56.457Z,24.13
